Lanes Prairie, Missouri
Current Conditions -  °F | °C
As of 10:17 AM on Thursday 27 Nov 2014 (Local Time) from KVIH Reporting Station
Overcast Overcast  
Wind Chill: -6°   Ceiling: 1400
Heat Index: -2°   Visibility: 7mi
Dew Point: -4°   Wind: 9mph
Humidity: 82%   Direction: 310°NW
Pressure: 30.48"   Gusts: NA
Location:  38.2601°N, 91.7526°W
Report Text: KVIH 271617Z AUTO 31008KT 7SM OVC014 M02/M04 A3048 RMK AO2 T10171044
Loading
Personal Weather Stations






























Interactive Weather Map New forecast layout! Learn more

10-Day Weather Forecast

Advertisements
Track Severe Weather on mobile